createdAt,value
2023-01-03T00:01:53.908Z,10.60
2023-01-03T00:04:22.129Z,10.68
2023-01-03T00:06:51.554Z,10.73
2023-01-03T00:09:21.691Z,10.70
2023-01-03T00:12:09.642Z,10.67
2023-01-03T00:14:44.184Z,10.49
2023-01-03T00:17:12.911Z,10.59
2023-01-03T00:19:42.809Z,10.66
2023-01-03T00:22:12.321Z,10.57
2023-01-03T00:24:40.215Z,10.56
2023-01-03T00:27:08.926Z,10.45
2023-01-03T00:29:37.102Z,10.48
2023-01-03T00:32:07.355Z,10.46
2023-01-03T00:34:35.995Z,10.37
2023-01-03T00:37:03.980Z,10.42
2023-01-03T00:39:31.879Z,10.60
2023-01-03T00:41:59.675Z,10.28
2023-01-03T00:44:27.515Z,10.52
2023-01-03T00:46:55.257Z,10.49
2023-01-03T00:49:23.029Z,10.57
2023-01-03T00:51:50.992Z,10.63
2023-01-03T00:54:18.761Z,10.69
2023-01-03T00:56:48.251Z,10.54
2023-01-03T00:59:17.650Z,10.56
2023-01-03T01:01:53.015Z,10.58
2023-01-03T01:04:32.024Z,10.47
2023-01-03T01:07:02.729Z,10.40
2023-01-03T01:09:35.907Z,10.43
2023-01-03T01:12:05.257Z,10.57
2023-01-03T01:14:33.855Z,10.58
2023-01-03T01:17:04.914Z,10.63
2023-01-03T01:19:35.100Z,10.72
2023-01-03T01:22:03.327Z,10.56
2023-01-03T01:24:31.674Z,10.54
2023-01-03T01:27:00.450Z,10.34
2023-01-03T01:29:28.229Z,10.42
2023-01-03T01:31:56.070Z,10.44
2023-01-03T01:34:24.139Z,10.38
2023-01-03T01:36:52.180Z,10.35
2023-01-03T01:39:23.126Z,10.47
2023-01-03T01:42:18.356Z,10.53
2023-01-03T01:45:12.694Z,10.59
2023-01-03T01:47:54.897Z,10.55
2023-01-03T01:50:32.139Z,10.45
2023-01-03T01:53:01.996Z,10.47
2023-01-03T01:55:39.287Z,10.46
2023-01-03T01:58:09.118Z,10.58
2023-01-03T02:00:40.544Z,10.39
2023-01-03T02:03:08.680Z,10.22
2023-01-03T02:05:39.655Z,10.32
2023-01-03T02:08:07.424Z,10.35
2023-01-03T02:10:55.191Z,10.43
2023-01-03T02:13:31.687Z,10.52
2023-01-03T02:16:17.872Z,10.65
2023-01-03T02:19:39.501Z,10.66
2023-01-03T02:22:09.909Z,10.46
2023-01-03T02:24:54.826Z,10.29
2023-01-03T02:27:45.713Z,10.35
2023-01-03T02:30:38.110Z,10.48
2023-01-03T02:33:10.625Z,10.58
2023-01-03T02:35:47.710Z,10.41
2023-01-03T02:38:36.335Z,10.52
2023-01-03T02:41:17.134Z,10.49
2023-01-03T02:44:19.983Z,10.29
2023-01-03T02:47:05.566Z,10.36
2023-01-03T02:49:45.085Z,10.28
2023-01-03T02:52:22.050Z,10.24
2023-01-03T02:55:18.716Z,10.42
2023-01-03T02:57:53.474Z,10.32
2023-01-03T03:00:25.740Z,10.40
2023-01-03T03:02:59.367Z,10.29
2023-01-03T03:05:34.190Z,10.36
2023-01-03T03:08:01.884Z,10.41
2023-01-03T03:10:48.797Z,10.45
2023-01-03T03:13:28.367Z,10.33
2023-01-03T03:16:17.911Z,10.39
2023-01-03T03:18:59.631Z,10.40
2023-01-03T03:21:54.425Z,10.34
2023-01-03T03:24:46.399Z,10.36
2023-01-03T03:27:35.814Z,10.30
2023-01-03T03:30:05.745Z,10.21
2023-01-03T03:32:36.540Z,10.30
2023-01-03T03:35:09.166Z,10.38
2023-01-03T03:37:40.087Z,10.35
2023-01-03T03:40:37.961Z,10.20
2023-01-03T03:43:34.404Z,10.18
2023-01-03T03:46:10.493Z,10.27
2023-01-03T03:48:58.101Z,10.29
2023-01-03T03:51:31.791Z,10.32
2023-01-03T03:54:04.291Z,10.20
2023-01-03T03:56:34.920Z,10.19
2023-01-03T03:59:08.855Z,10.13
2023-01-03T04:01:39.278Z,10.27
2023-01-03T04:04:11.789Z,10.27
2023-01-03T04:06:45.863Z,10.22
2023-01-03T04:09:14.240Z,10.12
2023-01-03T04:11:41.971Z,10.18
2023-01-03T04:14:09.909Z,10.24
2023-01-03T04:16:37.984Z,10.17
2023-01-03T04:19:06.010Z,10.19
2023-01-03T04:21:33.847Z,10.22
2023-01-03T04:24:01.549Z,10.22
2023-01-03T04:26:29.475Z,10.24
2023-01-03T04:28:57.391Z,10.25
2023-01-03T04:31:25.150Z,10.28
2023-01-03T04:33:54.158Z,10.29
2023-01-03T04:36:22.246Z,10.28
2023-01-03T04:38:49.926Z,10.25
2023-01-03T04:41:17.730Z,10.23
2023-01-03T04:44:04.863Z,10.26
2023-01-03T04:46:35.403Z,10.22
2023-01-03T04:49:05.188Z,10.27
2023-01-03T04:51:33.396Z,10.19
2023-01-03T04:54:01.885Z,10.19
2023-01-03T04:56:32.698Z,10.17
2023-01-03T04:59:00.666Z,10.22
2023-01-03T05:01:29.197Z,10.25
2023-01-03T05:04:01.344Z,10.34
2023-01-03T05:06:29.408Z,10.41
2023-01-03T05:08:57.189Z,10.38
2023-01-03T05:11:24.882Z,10.32
2023-01-03T05:13:52.759Z,10.36
2023-01-03T05:16:21.411Z,10.28
2023-01-03T05:18:51.447Z,10.31
2023-01-03T05:21:40.011Z,10.46
2023-01-03T05:24:29.294Z,10.47
2023-01-03T05:26:59.897Z,10.59
2023-01-03T05:29:29.065Z,10.62
2023-01-03T05:31:57.307Z,10.59
2023-01-03T05:34:25.160Z,10.55
2023-01-03T05:36:53.100Z,10.50
2023-01-03T05:39:20.948Z,10.56
2023-01-03T05:42:00.412Z,10.61
2023-01-03T05:44:33.140Z,10.60
2023-01-03T05:47:02.922Z,10.65
2023-01-03T05:49:35.802Z,10.66
2023-01-03T05:52:04.046Z,10.57
2023-01-03T05:54:31.766Z,10.60
2023-01-03T05:56:59.504Z,10.60
2023-01-03T05:59:27.355Z,10.62
2023-01-03T06:01:56.372Z,10.74
2023-01-03T06:04:24.333Z,10.70
2023-01-03T06:06:52.149Z,10.68
2023-01-03T06:09:19.850Z,10.61
2023-01-03T06:11:48.650Z,10.65
2023-01-03T06:14:16.541Z,10.55
2023-01-03T06:17:04.058Z,10.51
2023-01-03T06:19:31.729Z,10.59
2023-01-03T06:21:59.402Z,10.72
2023-01-03T06:24:27.137Z,10.60
2023-01-03T06:26:54.956Z,10.42
2023-01-03T06:29:22.930Z,10.44
2023-01-03T06:31:50.719Z,10.47
2023-01-03T06:34:21.496Z,10.41
2023-01-03T06:36:52.190Z,10.49
2023-01-03T06:39:19.989Z,10.39
2023-01-03T06:41:49.103Z,10.40
2023-01-03T06:44:22.083Z,10.35
2023-01-03T06:47:08.815Z,10.44
2023-01-03T06:50:23.922Z,10.43
2023-01-03T06:53:12.759Z,10.46
2023-01-03T06:56:06.810Z,10.42
2023-01-03T06:58:35.101Z,10.18
2023-01-03T07:01:04.912Z,10.16
2023-01-03T07:03:33.588Z,10.15
2023-01-03T07:06:01.231Z,10.20
2023-01-03T07:08:28.799Z,10.36
2023-01-03T07:10:56.574Z,10.20
2023-01-03T07:13:43.497Z,10.25
2023-01-03T07:16:16.634Z,10.33
2023-01-03T07:18:50.696Z,10.37
2023-01-03T07:21:27.005Z,10.29
2023-01-03T07:23:59.214Z,10.34
2023-01-03T07:26:26.904Z,10.26
2023-01-03T07:28:54.581Z,10.47
2023-01-03T07:31:22.241Z,10.43
2023-01-03T07:33:50.552Z,10.48
2023-01-03T07:36:18.089Z,10.55
2023-01-03T07:38:46.603Z,10.69
2023-01-03T07:41:15.616Z,10.70
2023-01-03T07:43:48.545Z,10.67
2023-01-03T07:46:18.357Z,10.49
2023-01-03T07:48:52.039Z,10.63
2023-01-03T07:51:46.730Z,10.78
2023-01-03T07:54:21.563Z,10.79
2023-01-03T07:56:49.073Z,10.68
2023-01-03T07:59:16.644Z,10.68
2023-01-03T08:01:54.976Z,10.72
2023-01-03T08:04:22.824Z,10.74
2023-01-03T08:06:51.100Z,10.71
2023-01-03T08:09:37.053Z,10.80
2023-01-03T08:12:23.488Z,10.75
2023-01-03T08:14:51.196Z,10.93
2023-01-03T08:17:18.931Z,11.02
2023-01-03T08:19:46.481Z,10.95
2023-01-03T08:22:14.184Z,10.79
2023-01-03T08:24:41.916Z,10.49
2023-01-03T08:27:09.564Z,10.52
2023-01-03T08:29:37.184Z,10.79
2023-01-03T08:32:05.963Z,10.87
2023-01-03T08:34:37.924Z,10.86
2023-01-03T08:37:10.494Z,10.99
2023-01-03T08:39:44.448Z,10.99
2023-01-03T08:42:15.969Z,11.05
2023-01-03T08:44:45.313Z,11.23
2023-01-03T08:47:17.354Z,11.35
2023-01-03T08:49:45.122Z,11.09
2023-01-03T08:52:12.909Z,11.19
2023-01-03T08:54:40.633Z,11.01
2023-01-03T08:57:08.192Z,11.08
2023-01-03T08:59:35.831Z,11.28
2023-01-03T09:02:03.861Z,11.34
2023-01-03T09:04:31.733Z,11.62
2023-01-03T09:06:59.376Z,11.64
2023-01-03T09:09:26.978Z,11.54
2023-01-03T09:11:54.599Z,11.57
2023-01-03T09:14:22.322Z,11.72
2023-01-03T09:16:50.009Z,11.91
2023-01-03T09:19:17.984Z,11.63
2023-01-03T09:21:45.715Z,11.57
2023-01-03T09:24:13.523Z,11.79
2023-01-03T09:26:41.154Z,11.78
2023-01-03T09:29:08.880Z,11.71
2023-01-03T09:31:40.036Z,11.82
2023-01-03T09:34:09.856Z,11.81
2023-01-03T09:36:40.652Z,11.49
2023-01-03T09:39:08.373Z,11.59
2023-01-03T09:41:36.415Z,11.65
2023-01-03T09:44:08.205Z,11.80
2023-01-03T09:46:37.199Z,11.78
2023-01-03T09:49:07.372Z,11.66
2023-01-03T09:51:57.417Z,11.25
2023-01-03T09:54:51.074Z,11.53
2023-01-03T09:57:43.130Z,11.47
2023-01-03T10:00:37.733Z,11.38
2023-01-03T10:03:50.332Z,11.76
2023-01-03T10:06:59.752Z,11.99
2023-01-03T10:09:54.070Z,12.04
2023-01-03T10:12:53.128Z,11.91
2023-01-03T10:15:23.600Z,12.25
2023-01-03T10:18:28.365Z,11.88
2023-01-03T10:21:09.456Z,12.05
2023-01-03T10:23:37.756Z,12.06
2023-01-03T10:26:12.314Z,12.36
2023-01-03T10:28:44.318Z,12.49
2023-01-03T10:31:56.427Z,12.83
2023-01-03T10:34:24.672Z,12.85
2023-01-03T10:36:52.256Z,12.79
2023-01-03T10:39:31.245Z,12.62
2023-01-03T10:42:00.462Z,12.97
2023-01-03T10:44:30.973Z,12.40
2023-01-03T10:47:18.746Z,12.64
2023-01-03T10:49:47.211Z,12.70
2023-01-03T10:52:18.391Z,12.58
2023-01-03T10:54:56.024Z,12.81
2023-01-03T10:57:43.708Z,13.16
2023-01-03T11:00:35.911Z,13.30
2023-01-03T11:03:12.523Z,13.19
2023-01-03T11:05:43.055Z,13.28
2023-01-03T11:08:21.152Z,13.13
2023-01-03T11:10:57.620Z,12.68
2023-01-03T11:13:38.312Z,12.69
2023-01-03T11:16:17.679Z,12.95
2023-01-03T11:19:00.554Z,12.89
2023-01-03T11:21:43.205Z,12.75
2023-01-03T11:24:44.553Z,12.78
2023-01-03T11:27:47.653Z,13.07
2023-01-03T11:30:30.190Z,13.02
2023-01-03T11:33:09.453Z,12.98
2023-01-03T11:35:51.938Z,12.67
2023-01-03T11:38:38.309Z,12.95
2023-01-03T11:41:18.695Z,12.63
2023-01-03T11:44:06.408Z,12.92
2023-01-03T11:46:42.501Z,12.84
2023-01-03T11:49:23.191Z,13.09
2023-01-03T11:52:10.564Z,13.25
2023-01-03T11:54:49.333Z,13.11
2023-01-03T11:57:51.022Z,13.45
2023-01-03T12:00:42.222Z,13.25
2023-01-03T12:03:10.061Z,13.34
2023-01-03T12:05:45.671Z,12.96
2023-01-03T12:08:16.533Z,13.22
2023-01-03T12:10:53.002Z,13.23
2023-01-03T12:13:51.975Z,13.19
2023-01-03T12:16:26.332Z,13.10
2023-01-03T12:19:12.543Z,13.41
2023-01-03T12:21:48.279Z,13.48
2023-01-03T12:24:15.687Z,13.70
2023-01-03T12:26:50.820Z,13.49
2023-01-03T12:29:25.062Z,13.59
2023-01-03T12:32:22.329Z,13.51
2023-01-03T12:35:24.237Z,13.67
2023-01-03T12:37:52.381Z,13.67
2023-01-03T12:40:57.275Z,13.69
2023-01-03T12:43:40.170Z,13.44
2023-01-03T12:46:33.461Z,13.18
2023-01-03T12:49:22.583Z,13.34
2023-01-03T12:51:50.259Z,13.26
2023-01-03T12:54:24.108Z,13.46
2023-01-03T12:57:04.420Z,13.76
2023-01-03T12:59:50.474Z,13.78
2023-01-03T13:02:55.315Z,13.81
2023-01-03T13:05:55.048Z,13.56
2023-01-03T13:08:41.246Z,13.76
2023-01-03T13:11:28.855Z,13.93
2023-01-03T13:14:05.709Z,13.78
2023-01-03T13:16:36.508Z,13.55
2023-01-03T13:19:22.429Z,13.57
2023-01-03T13:21:52.698Z,13.28
2023-01-03T13:24:43.170Z,13.14
2023-01-03T13:27:19.708Z,13.12
2023-01-03T13:29:50.141Z,13.29
2023-01-03T13:32:26.088Z,13.34
2023-01-03T13:34:56.667Z,13.14
2023-01-03T13:37:29.497Z,13.14
2023-01-03T13:40:10.809Z,13.35
2023-01-03T13:42:40.371Z,13.07
2023-01-03T13:45:19.824Z,13.19
2023-01-03T13:47:56.950Z,12.99
2023-01-03T13:50:45.237Z,13.02
2023-01-03T13:58:06.467Z,13.03
2023-01-03T14:02:08.099Z,12.78
2023-01-03T14:04:54.076Z,12.70
2023-01-03T14:08:17.221Z,12.70
2023-01-03T14:11:42.668Z,12.94
2023-01-03T14:15:55.038Z,13.13
2023-01-03T14:18:28.782Z,12.82
2023-01-03T14:21:13.939Z,12.94
2023-01-03T14:24:01.682Z,12.87
2023-01-03T14:26:33.889Z,12.84
2023-01-03T14:29:18.832Z,12.78
2023-01-03T14:31:50.368Z,12.83
2023-01-03T14:34:29.455Z,12.74
2023-01-03T14:37:01.859Z,12.68
2023-01-03T14:42:06.361Z,12.41
2023-01-03T14:44:35.582Z,12.13
2023-01-03T14:47:07.099Z,12.13
2023-01-03T14:49:41.875Z,12.33
2023-01-03T14:52:19.173Z,12.31
2023-01-03T14:54:52.179Z,12.28
2023-01-03T14:57:23.985Z,12.17
2023-01-03T14:59:53.536Z,12.29
2023-01-03T15:02:21.492Z,12.28
2023-01-03T15:04:56.468Z,12.24
2023-01-03T15:07:44.762Z,12.29
2023-01-03T15:10:12.540Z,12.34
2023-01-03T15:12:48.965Z,12.34
2023-01-03T15:15:30.735Z,12.22
2023-01-03T15:18:03.772Z,12.30
2023-01-03T15:20:37.308Z,12.32
2023-01-03T15:23:06.054Z,12.04
2023-01-03T15:25:37.705Z,12.03
2023-01-03T15:28:26.368Z,11.86
2023-01-03T15:30:56.731Z,11.98
2023-01-03T15:33:33.539Z,11.88
2023-01-03T15:36:18.471Z,11.87
2023-01-03T15:38:48.826Z,11.81
2023-01-03T15:44:49.673Z,11.69
2023-01-03T15:47:19.827Z,11.79
2023-01-03T15:49:50.335Z,11.59
2023-01-03T15:52:17.843Z,11.59
2023-01-03T15:54:46.146Z,11.70
2023-01-03T15:57:20.504Z,11.78
2023-01-03T15:59:58.111Z,11.74
2023-01-03T16:02:26.192Z,11.75
2023-01-03T16:04:54.434Z,11.68
2023-01-03T16:07:24.571Z,11.61
2023-01-03T18:41:53.144Z,10.46
2023-01-03T21:20:00.532Z,9.54
2023-01-03T22:54:55.665Z,9.81
2023-01-03T23:14:09.314Z,9.68
2023-01-03T23:16:40.297Z,9.70
